createdAt,value
2022-10-21T09:22:36.010Z,100795.50
2022-10-21T09:27:10.227Z,100797.16
2022-10-21T09:30:47.916Z,100801.97
2022-10-21T09:34:47.974Z,100792.09
2022-10-21T09:38:08.724Z,100800.41
2022-10-21T09:41:23.470Z,100789.63
2022-10-21T09:44:34.692Z,100794.03
2022-10-21T09:49:41.480Z,100789.56
2022-10-21T09:58:06.233Z,100800.75
2022-10-21T10:01:34.835Z,100803.00
2022-10-21T10:05:06.050Z,100798.00
2022-10-21T10:08:49.212Z,100799.03
2022-10-21T10:12:13.005Z,100796.13
2022-10-21T10:15:36.016Z,100800.09
2022-10-21T10:18:47.055Z,100793.66
2022-10-21T10:22:17.082Z,100792.56
2022-10-21T10:25:24.531Z,100803.00
2022-10-21T10:29:37.799Z,100794.81
2022-10-21T10:32:47.946Z,100787.97
2022-10-21T10:46:36.744Z,100796.63
2022-10-21T11:48:59.434Z,100743.09
2022-10-21T11:52:31.898Z,100739.50
2022-10-21T11:56:30.350Z,100741.63
2022-10-21T12:00:24.721Z,100742.91
2022-10-21T12:04:05.740Z,100744.97
2022-10-21T12:07:29.426Z,100741.03
2022-10-21T12:11:23.022Z,100729.69
2022-10-21T12:14:58.679Z,100728.59
2022-10-21T12:21:39.984Z,100720.13
2022-10-21T12:25:07.447Z,100717.34
2022-10-21T12:28:59.535Z,100730.69
2022-10-21T12:32:54.414Z,100729.13
2022-10-21T12:36:25.728Z,100726.56
2022-10-21T12:44:34.289Z,100725.19
2022-10-21T12:47:55.871Z,100720.97
2022-10-21T12:51:40.094Z,100720.09
2022-10-21T12:55:22.873Z,100722.03
2022-10-21T12:58:49.879Z,100719.47
2022-10-21T13:13:27.308Z,100719.91
2022-10-21T17:30:15.861Z,100762.59
2022-10-21T18:53:05.440Z,100774.63
2022-10-21T18:56:13.495Z,100778.38
2022-10-21T18:59:22.683Z,100784.63
2022-10-21T19:08:35.648Z,100785.94
2022-10-21T19:21:32.341Z,100806.13
2022-10-21T20:05:14.254Z,100865.84
2022-10-21T20:19:04.182Z,100882.56
2022-10-21T20:24:02.719Z,100888.69
2022-10-21T22:36:16.597Z,100925.72
2022-10-21T22:39:47.620Z,100924.03
2022-10-21T23:19:35.946Z,100931.75
2022-10-21T23:23:07.611Z,100929.13
2022-10-21T23:26:39.122Z,100935.13
2022-10-21T23:30:21.635Z,100942.88
2022-10-21T23:45:01.899Z,100950.59
2022-10-21T23:48:36.565Z,100951.56
2022-10-21T23:52:33.874Z,100951.38
